Lena — V2FR — position and weather

sailwx.info

Track history (hours):
 
Tides and Currents Weather Stations Pressure Air Temp Water Temp Dewpoint Dewpoint Depression Visibility Wind Speed Wind Dir Waves Ship Positions

Lena

Last reported at 2015-Mar-25 06:14 UTC. Time now 2015-Mar-29 12:28 UTC.
Position N 46°11' W 124°13'.

Length 152 m; draft 6.8 m.

Type: Cargo ship. MMSI: 304080808.

Date/timePositionNaut miles runAvg speedWind from/ knotsBaromVisibWave heightAir tempDewpointWater temp
2015-Mar-25 06:14N 46°11' W 124°13'710.3
2015-Mar-25 05:32N 46°15' W 124°05'1212.3
2015-Mar-25 04:34N 46°12' W 123°49'1615.5
2015-Mar-25 03:33N 46°15' W 123°26'  
2015-Mar-20 10:11N 46°16' W 123°28'813.3
2015-Mar-20 09:33N 46°15' W 123°40'1211.7
2015-Mar-20 08:33N 46°12' W 123°56'1110.4
2015-Mar-20 07:33N 46°12' W 124°11'10 9.7
2015-Mar-20 06:32N 46°03' W 124°17'46613.7
2015-Mar-18 20:33N 38°16' W 124°20'1514.6
2015-Mar-18 19:30N 38°01' W 124°17'1614.1
2015-Mar-18 18:22N 37°46' W 124°15'46313.6
2015-Mar-17 08:13N 30°60' W 119°43'1013.9
2015-Mar-17 07:28N 30°54' W 119°33'1314.1
2015-Mar-17 06:33N 30°47' W 119°21'1313.2
2015-Mar-17 05:33N 30°39' W 119°08'1414.1
2015-Mar-17 04:34N 30°31' W 118°55'1615.6
2015-Mar-17 03:33N 30°23' W 118°39'  
Track history (hours):
 
Tides and Currents Weather Stations Pressure Air Temp Water Temp Dewpoint Dewpoint Depression Visibility Wind Speed Wind Dir Waves Ship Positions

Lena

Last reported at 2015-Mar-25 06:14 UTC. Time now 2015-Mar-29 12:28 UTC.
Position N 46°11' W 124°13'.

Length 152 m; draft 6.8 m.

Type: Cargo ship. MMSI: 304080808.

Date/timePositionNaut miles runAvg speedWind from/ knotsBaromVisibWave heightAir tempDewpointWater temp
2015-Mar-25 06:14N 46°11' W 124°13'710.3
2015-Mar-25 05:32N 46°15' W 124°05'1212.3
2015-Mar-25 04:34N 46°12' W 123°49'1615.5
2015-Mar-25 03:33N 46°15' W 123°26'  
2015-Mar-20 10:11N 46°16' W 123°28'813.3
2015-Mar-20 09:33N 46°15' W 123°40'1211.7
2015-Mar-20 08:33N 46°12' W 123°56'1110.4
2015-Mar-20 07:33N 46°12' W 124°11'10 9.7
2015-Mar-20 06:32N 46°03' W 124°17'46613.7
2015-Mar-18 20:33N 38°16' W 124°20'1514.6
2015-Mar-18 19:30N 38°01' W 124°17'1614.1
2015-Mar-18 18:22N 37°46' W 124°15'46313.6
2015-Mar-17 08:13N 30°60' W 119°43'1013.9
2015-Mar-17 07:28N 30°54' W 119°33'1314.1
2015-Mar-17 06:33N 30°47' W 119°21'1313.2
2015-Mar-17 05:33N 30°39' W 119°08'1414.1
2015-Mar-17 04:34N 30°31' W 118°55'1615.6
2015-Mar-17 03:33N 30°23' W 118°39'  

Dump ship's entire track history